sensor_id;sensor_type;location;lat;lon;timestamp;P1;durP1;ratioP1;P2;durP2;ratioP2
18726;SDS011;9492;51.888;5.186;2023-07-31T00:02:17;16.17;;;6.17;;
18726;SDS011;9492;51.888;5.186;2023-07-31T00:04:43;19.53;;;7.10;;
18726;SDS011;9492;51.888;5.186;2023-07-31T00:07:09;17.73;;;7.67;;
18726;SDS011;9492;51.888;5.186;2023-07-31T00:09:35;21.20;;;7.10;;
18726;SDS011;9492;51.888;5.186;2023-07-31T00:12:01;17.20;;;7.73;;
18726;SDS011;9492;51.888;5.186;2023-07-31T00:14:27;20.20;;;7.27;;
18726;SDS011;9492;51.888;5.186;2023-07-31T00:16:53;15.77;;;6.57;;
18726;SDS011;9492;51.888;5.186;2023-07-31T00:19:19;15.40;;;5.77;;
18726;SDS011;9492;51.888;5.186;2023-07-31T00:21:45;15.97;;;6.67;;
18726;SDS011;9492;51.888;5.186;2023-07-31T00:24:11;17.43;;;7.77;;
18726;SDS011;9492;51.888;5.186;2023-07-31T00:26:37;16.57;;;7.33;;
18726;SDS011;9492;51.888;5.186;2023-07-31T00:29:03;15.20;;;6.33;;
18726;SDS011;9492;51.888;5.186;2023-07-31T00:31:29;19.67;;;7.70;;
18726;SDS011;9492;51.888;5.186;2023-07-31T00:33:55;20.60;;;7.23;;
18726;SDS011;9492;51.888;5.186;2023-07-31T00:36:21;12.23;;;6.37;;
18726;SDS011;9492;51.888;5.186;2023-07-31T00:38:47;15.90;;;6.23;;
18726;SDS011;9492;51.888;5.186;2023-07-31T00:41:15;18.47;;;6.50;;
18726;SDS011;9492;51.888;5.186;2023-07-31T00:43:41;14.80;;;6.03;;
18726;SDS011;9492;51.888;5.186;2023-07-31T00:46:07;18.83;;;6.33;;
18726;SDS011;9492;51.888;5.186;2023-07-31T00:48:33;15.17;;;6.20;;
18726;SDS011;9492;51.888;5.186;2023-07-31T00:51:00;18.43;;;6.13;;
18726;SDS011;9492;51.888;5.186;2023-07-31T00:53:26;17.80;;;6.77;;
18726;SDS011;9492;51.888;5.186;2023-07-31T00:55:53;17.43;;;6.17;;
18726;SDS011;9492;51.888;5.186;2023-07-31T00:58:19;15.77;;;6.20;;
18726;SDS011;9492;51.888;5.186;2023-07-31T01:00:45;15.57;;;6.53;;
18726;SDS011;9492;51.888;5.186;2023-07-31T01:03:11;16.17;;;5.93;;
18726;SDS011;9492;51.888;5.186;2023-07-31T01:05:49;13.67;;;6.20;;
18726;SDS011;9492;51.888;5.186;2023-07-31T01:11:05;20.47;;;7.10;;
18726;SDS011;9492;51.888;5.186;2023-07-31T01:16:07;16.00;;;6.07;;
18726;SDS011;9492;51.888;5.186;2023-07-31T01:18:33;13.33;;;6.20;;
18726;SDS011;9492;51.888;5.186;2023-07-31T01:26:30;17.20;;;7.17;;
18726;SDS011;9492;51.888;5.186;2023-07-31T01:29:01;15.20;;;7.37;;
18726;SDS011;9492;51.888;5.186;2023-07-31T01:31:29;13.63;;;6.27;;
18726;SDS011;9492;51.888;5.186;2023-07-31T01:33:56;16.93;;;7.00;;
18726;SDS011;9492;51.888;5.186;2023-07-31T01:36:23;13.20;;;5.80;;
18726;SDS011;9492;51.888;5.186;2023-07-31T01:38:49;17.57;;;6.40;;
18726;SDS011;9492;51.888;5.186;2023-07-31T01:41:18;15.97;;;6.83;;
18726;SDS011;9492;51.888;5.186;2023-07-31T01:43:45;15.00;;;5.80;;
18726;SDS011;9492;51.888;5.186;2023-07-31T01:46:11;12.97;;;5.97;;
18726;SDS011;9492;51.888;5.186;2023-07-31T01:48:37;22.87;;;6.70;;
18726;SDS011;9492;51.888;5.186;2023-07-31T01:51:03;15.60;;;5.80;;
18726;SDS011;9492;51.888;5.186;2023-07-31T01:53:30;15.07;;;5.60;;
18726;SDS011;9492;51.888;5.186;2023-07-31T01:55:56;13.30;;;5.70;;
18726;SDS011;9492;51.888;5.186;2023-07-31T01:58:22;14.23;;;5.20;;
18726;SDS011;9492;51.888;5.186;2023-07-31T02:00:48;12.53;;;4.87;;
18726;SDS011;9492;51.888;5.186;2023-07-31T02:03:29;14.57;;;5.93;;
18726;SDS011;9492;51.888;5.186;2023-07-31T02:05:55;15.23;;;5.27;;
18726;SDS011;9492;51.888;5.186;2023-07-31T02:08:21;11.00;;;5.40;;
18726;SDS011;9492;51.888;5.186;2023-07-31T02:10:47;15.90;;;5.47;;
18726;SDS011;9492;51.888;5.186;2023-07-31T02:15:59;9.60;;;5.20;;
18726;SDS011;9492;51.888;5.186;2023-07-31T02:18:26;11.60;;;5.37;;
18726;SDS011;9492;51.888;5.186;2023-07-31T02:20:53;13.80;;;5.47;;
18726;SDS011;9492;51.888;5.186;2023-07-31T02:23:19;14.67;;;5.43;;
18726;SDS011;9492;51.888;5.186;2023-07-31T02:25:45;19.50;;;6.37;;
18726;SDS011;9492;51.888;5.186;2023-07-31T02:28:11;15.40;;;5.33;;
18726;SDS011;9492;51.888;5.186;2023-07-31T02:30:37;13.80;;;6.20;;
18726;SDS011;9492;51.888;5.186;2023-07-31T02:33:04;20.27;;;7.13;;
18726;SDS011;9492;51.888;5.186;2023-07-31T02:35:30;15.47;;;6.57;;
18726;SDS011;9492;51.888;5.186;2023-07-31T02:37:56;13.77;;;5.60;;
18726;SDS011;9492;51.888;5.186;2023-07-31T02:40:22;16.53;;;7.07;;
18726;SDS011;9492;51.888;5.186;2023-07-31T02:42:48;27.00;;;6.87;;
18726;SDS011;9492;51.888;5.186;2023-07-31T02:45:14;15.00;;;6.93;;
18726;SDS011;9492;51.888;5.186;2023-07-31T02:47:40;15.50;;;6.30;;
18726;SDS011;9492;51.888;5.186;2023-07-31T02:50:06;16.30;;;6.97;;
18726;SDS011;9492;51.888;5.186;2023-07-31T02:52:32;21.87;;;6.70;;
18726;SDS011;9492;51.888;5.186;2023-07-31T02:54:58;14.63;;;5.87;;
18726;SDS011;9492;51.888;5.186;2023-07-31T02:57:25;19.57;;;6.90;;
18726;SDS011;9492;51.888;5.186;2023-07-31T02:59:51;12.17;;;6.23;;
18726;SDS011;9492;51.888;5.186;2023-07-31T03:02:17;13.53;;;7.10;;
18726;SDS011;9492;51.888;5.186;2023-07-31T03:04:43;16.07;;;5.93;;
18726;SDS011;9492;51.888;5.186;2023-07-31T03:07:09;12.80;;;5.33;;
18726;SDS011;9492;51.888;5.186;2023-07-31T03:09:35;14.73;;;6.27;;
18726;SDS011;9492;51.888;5.186;2023-07-31T03:12:01;12.73;;;5.97;;
18726;SDS011;9492;51.888;5.186;2023-07-31T03:17:09;12.97;;;5.40;;
18726;SDS011;9492;51.888;5.186;2023-07-31T03:19:35;13.47;;;6.30;;
18726;SDS011;9492;51.888;5.186;2023-07-31T03:22:01;14.90;;;5.67;;
18726;SDS011;9492;51.888;5.186;2023-07-31T03:24:28;14.50;;;6.93;;
18726;SDS011;9492;51.888;5.186;2023-07-31T03:26:54;22.70;;;7.27;;
18726;SDS011;9492;51.888;5.186;2023-07-31T03:29:30;16.63;;;5.43;;
18726;SDS011;9492;51.888;5.186;2023-07-31T03:31:56;13.83;;;6.20;;
18726;SDS011;9492;51.888;5.186;2023-07-31T03:34:23;19.13;;;6.30;;
18726;SDS011;9492;51.888;5.186;2023-07-31T03:36:49;14.13;;;6.80;;
18726;SDS011;9492;51.888;5.186;2023-07-31T03:39:14;18.03;;;6.03;;
18726;SDS011;9492;51.888;5.186;2023-07-31T03:41:40;18.63;;;6.27;;
18726;SDS011;9492;51.888;5.186;2023-07-31T03:44:06;13.47;;;5.27;;
18726;SDS011;9492;51.888;5.186;2023-07-31T03:46:32;18.90;;;5.93;;
18726;SDS011;9492;51.888;5.186;2023-07-31T03:48:59;11.93;;;5.63;;
18726;SDS011;9492;51.888;5.186;2023-07-31T03:51:25;13.00;;;5.90;;
18726;SDS011;9492;51.888;5.186;2023-07-31T03:53:51;17.23;;;5.97;;
18726;SDS011;9492;51.888;5.186;2023-07-31T03:56:20;15.97;;;5.97;;
18726;SDS011;9492;51.888;5.186;2023-07-31T03:58:47;13.00;;;4.93;;
18726;SDS011;9492;51.888;5.186;2023-07-31T04:01:13;9.73;;;5.27;;
18726;SDS011;9492;51.888;5.186;2023-07-31T04:03:39;15.77;;;5.60;;
18726;SDS011;9492;51.888;5.186;2023-07-31T04:06:10;14.37;;;5.43;;
18726;SDS011;9492;51.888;5.186;2023-07-31T04:08:36;14.07;;;6.23;;
18726;SDS011;9492;51.888;5.186;2023-07-31T04:11:02;22.57;;;6.23;;
18726;SDS011;9492;51.888;5.186;2023-07-31T04:13:29;12.83;;;5.30;;
18726;SDS011;9492;51.888;5.186;2023-07-31T04:15:55;10.70;;;5.30;;
18726;SDS011;9492;51.888;5.186;2023-07-31T04:18:25;12.60;;;5.37;;
18726;SDS011;9492;51.888;5.186;2023-07-31T04:20:51;13.77;;;5.53;;
18726;SDS011;9492;51.888;5.186;2023-07-31T04:23:17;15.33;;;5.87;;
18726;SDS011;9492;51.888;5.186;2023-07-31T04:25:43;13.00;;;5.37;;
18726;SDS011;9492;51.888;5.186;2023-07-31T04:28:09;9.97;;;5.37;;
18726;SDS011;9492;51.888;5.186;2023-07-31T04:30:36;11.43;;;4.97;;
18726;SDS011;9492;51.888;5.186;2023-07-31T04:33:02;12.00;;;5.10;;
18726;SDS011;9492;51.888;5.186;2023-07-31T04:35:28;11.33;;;4.87;;
18726;SDS011;9492;51.888;5.186;2023-07-31T04:37:54;15.17;;;5.57;;
18726;SDS011;9492;51.888;5.186;2023-07-31T04:40:20;16.23;;;5.37;;
18726;SDS011;9492;51.888;5.186;2023-07-31T04:42:46;12.40;;;5.97;;
18726;SDS011;9492;51.888;5.186;2023-07-31T04:45:13;10.77;;;4.83;;
18726;SDS011;9492;51.888;5.186;2023-07-31T04:47:39;10.13;;;4.73;;
18726;SDS011;9492;51.888;5.186;2023-07-31T04:50:05;12.37;;;4.50;;
18726;SDS011;9492;51.888;5.186;2023-07-31T04:52:32;11.40;;;4.50;;
18726;SDS011;9492;51.888;5.186;2023-07-31T04:54:58;12.83;;;4.70;;
18726;SDS011;9492;51.888;5.186;2023-07-31T04:57:24;12.30;;;4.47;;
18726;SDS011;9492;51.888;5.186;2023-07-31T04:59:49;8.63;;;3.50;;
18726;SDS011;9492;51.888;5.186;2023-07-31T05:02:16;10.20;;;5.20;;
18726;SDS011;9492;51.888;5.186;2023-07-31T05:04:42;13.37;;;5.13;;
18726;SDS011;9492;51.888;5.186;2023-07-31T05:07:08;7.93;;;3.93;;
18726;SDS011;9492;51.888;5.186;2023-07-31T05:09:34;12.90;;;4.63;;
18726;SDS011;9492;51.888;5.186;2023-07-31T05:12:00;18.50;;;5.53;;
18726;SDS011;9492;51.888;5.186;2023-07-31T05:14:26;10.93;;;4.83;;
18726;SDS011;9492;51.888;5.186;2023-07-31T05:16:52;13.17;;;4.77;;
18726;SDS011;9492;51.888;5.186;2023-07-31T05:19:18;9.90;;;4.30;;
18726;SDS011;9492;51.888;5.186;2023-07-31T05:21:44;9.67;;;4.73;;
18726;SDS011;9492;51.888;5.186;2023-07-31T05:24:10;9.03;;;4.13;;
18726;SDS011;9492;51.888;5.186;2023-07-31T05:26:36;11.53;;;4.53;;
18726;SDS011;9492;51.888;5.186;2023-07-31T05:29:03;10.53;;;4.87;;
18726;SDS011;9492;51.888;5.186;2023-07-31T05:31:29;6.97;;;4.10;;
18726;SDS011;9492;51.888;5.186;2023-07-31T05:33:57;11.33;;;5.30;;
18726;SDS011;9492;51.888;5.186;2023-07-31T05:36:31;8.17;;;3.73;;
18726;SDS011;9492;51.888;5.186;2023-07-31T05:38:57;9.83;;;4.63;;
18726;SDS011;9492;51.888;5.186;2023-07-31T05:41:23;9.47;;;4.30;;
18726;SDS011;9492;51.888;5.186;2023-07-31T05:43:49;8.47;;;4.27;;
18726;SDS011;9492;51.888;5.186;2023-07-31T05:46:16;7.13;;;4.07;;
18726;SDS011;9492;51.888;5.186;2023-07-31T05:48:42;9.20;;;4.63;;
18726;SDS011;9492;51.888;5.186;2023-07-31T05:51:10;8.97;;;4.13;;
18726;SDS011;9492;51.888;5.186;2023-07-31T05:53:36;10.17;;;4.30;;
18726;SDS011;9492;51.888;5.186;2023-07-31T05:56:05;9.13;;;4.47;;
18726;SDS011;9492;51.888;5.186;2023-07-31T05:58:31;9.53;;;4.00;;
18726;SDS011;9492;51.888;5.186;2023-07-31T06:00:57;9.13;;;3.87;;
18726;SDS011;9492;51.888;5.186;2023-07-31T06:06:16;6.43;;;3.40;;
18726;SDS011;9492;51.888;5.186;2023-07-31T06:08:42;7.90;;;3.80;;
18726;SDS011;9492;51.888;5.186;2023-07-31T06:11:08;6.60;;;3.63;;
18726;SDS011;9492;51.888;5.186;2023-07-31T06:13:35;6.83;;;3.40;;
18726;SDS011;9492;51.888;5.186;2023-07-31T06:16:01;7.00;;;3.20;;
18726;SDS011;9492;51.888;5.186;2023-07-31T06:18:34;3.63;;;2.77;;
18726;SDS011;9492;51.888;5.186;2023-07-31T06:21:00;3.90;;;2.60;;
18726;SDS011;9492;51.888;5.186;2023-07-31T06:23:38;4.00;;;2.90;;
18726;SDS011;9492;51.888;5.186;2023-07-31T06:26:04;6.30;;;3.03;;
18726;SDS011;9492;51.888;5.186;2023-07-31T06:28:31;4.10;;;2.87;;
18726;SDS011;9492;51.888;5.186;2023-07-31T06:30:57;5.43;;;3.57;;
18726;SDS011;9492;51.888;5.186;2023-07-31T06:33:23;4.33;;;2.83;;
18726;SDS011;9492;51.888;5.186;2023-07-31T06:35:50;4.17;;;2.73;;
18726;SDS011;9492;51.888;5.186;2023-07-31T06:38:18;4.33;;;2.40;;
18726;SDS011;9492;51.888;5.186;2023-07-31T06:40:44;4.73;;;3.57;;
18726;SDS011;9492;51.888;5.186;2023-07-31T06:43:10;5.60;;;3.13;;
18726;SDS011;9492;51.888;5.186;2023-07-31T06:45:36;8.10;;;3.30;;
18726;SDS011;9492;51.888;5.186;2023-07-31T06:48:03;4.40;;;2.70;;
18726;SDS011;9492;51.888;5.186;2023-07-31T06:50:29;5.00;;;3.33;;
18726;SDS011;9492;51.888;5.186;2023-07-31T06:52:56;3.80;;;2.80;;
18726;SDS011;9492;51.888;5.186;2023-07-31T06:55:22;4.37;;;2.93;;
18726;SDS011;9492;51.888;5.186;2023-07-31T06:57:49;4.47;;;2.97;;
18726;SDS011;9492;51.888;5.186;2023-07-31T07:00:27;3.33;;;2.57;;
18726;SDS011;9492;51.888;5.186;2023-07-31T07:02:53;3.83;;;2.87;;
18726;SDS011;9492;51.888;5.186;2023-07-31T07:05:19;4.60;;;3.13;;
18726;SDS011;9492;51.888;5.186;2023-07-31T07:07:45;4.40;;;3.23;;
18726;SDS011;9492;51.888;5.186;2023-07-31T07:10:11;3.83;;;3.20;;
18726;SDS011;9492;51.888;5.186;2023-07-31T07:12:37;5.30;;;3.27;;
18726;SDS011;9492;51.888;5.186;2023-07-31T07:15:04;3.77;;;3.20;;
18726;SDS011;9492;51.888;5.186;2023-07-31T07:17:30;4.23;;;3.30;;
18726;SDS011;9492;51.888;5.186;2023-07-31T07:19:56;5.10;;;3.30;;
18726;SDS011;9492;51.888;5.186;2023-07-31T07:22:23;3.93;;;2.70;;
18726;SDS011;9492;51.888;5.186;2023-07-31T07:24:51;3.57;;;2.43;;
18726;SDS011;9492;51.888;5.186;2023-07-31T07:27:17;3.37;;;2.77;;
18726;SDS011;9492;51.888;5.186;2023-07-31T07:29:51;5.80;;;2.80;;
18726;SDS011;9492;51.888;5.186;2023-07-31T07:32:20;6.57;;;3.53;;
18726;SDS011;9492;51.888;5.186;2023-07-31T07:34:47;3.53;;;2.47;;
18726;SDS011;9492;51.888;5.186;2023-07-31T07:37:13;2.80;;;2.43;;
18726;SDS011;9492;51.888;5.186;2023-07-31T07:39:55;2.70;;;2.43;;
18726;SDS011;9492;51.888;5.186;2023-07-31T07:42:22;2.97;;;2.67;;
18726;SDS011;9492;51.888;5.186;2023-07-31T07:44:48;2.73;;;2.53;;
18726;SDS011;9492;51.888;5.186;2023-07-31T07:47:14;3.20;;;2.53;;
18726;SDS011;9492;51.888;5.186;2023-07-31T07:49:49;3.80;;;2.10;;
18726;SDS011;9492;51.888;5.186;2023-07-31T07:52:15;3.10;;;2.67;;
18726;SDS011;9492;51.888;5.186;2023-07-31T07:57:44;3.63;;;2.30;;
18726;SDS011;9492;51.888;5.186;2023-07-31T08:00:10;2.67;;;2.27;;
18726;SDS011;9492;51.888;5.186;2023-07-31T08:02:36;2.37;;;2.17;;
18726;SDS011;9492;51.888;5.186;2023-07-31T08:05:02;3.40;;;2.13;;
18726;SDS011;9492;51.888;5.186;2023-07-31T08:07:37;2.80;;;2.30;;
18726;SDS011;9492;51.888;5.186;2023-07-31T08:10:03;2.90;;;2.50;;
18726;SDS011;9492;51.888;5.186;2023-07-31T08:12:30;3.97;;;2.30;;
18726;SDS011;9492;51.888;5.186;2023-07-31T08:14:56;2.80;;;2.60;;
18726;SDS011;9492;51.888;5.186;2023-07-31T08:17:22;2.37;;;2.17;;
18726;SDS011;9492;51.888;5.186;2023-07-31T08:19:48;2.70;;;2.50;;
18726;SDS011;9492;51.888;5.186;2023-07-31T08:22:14;2.67;;;2.43;;
18726;SDS011;9492;51.888;5.186;2023-07-31T08:24:40;2.30;;;2.10;;
18726;SDS011;9492;51.888;5.186;2023-07-31T08:27:06;4.57;;;2.60;;
18726;SDS011;9492;51.888;5.186;2023-07-31T08:29:32;3.30;;;2.63;;
18726;SDS011;9492;51.888;5.186;2023-07-31T08:31:58;3.27;;;2.97;;
18726;SDS011;9492;51.888;5.186;2023-07-31T08:34:24;2.90;;;2.40;;
18726;SDS011;9492;51.888;5.186;2023-07-31T08:36:50;2.80;;;1.80;;
18726;SDS011;9492;51.888;5.186;2023-07-31T08:39:16;5.27;;;2.47;;
18726;SDS011;9492;51.888;5.186;2023-07-31T08:41:42;3.13;;;2.10;;
18726;SDS011;9492;51.888;5.186;2023-07-31T08:44:08;2.40;;;2.20;;
18726;SDS011;9492;51.888;5.186;2023-07-31T08:46:42;3.47;;;2.77;;
18726;SDS011;9492;51.888;5.186;2023-07-31T08:49:08;3.73;;;2.43;;
18726;SDS011;9492;51.888;5.186;2023-07-31T08:51:35;5.00;;;2.77;;
18726;SDS011;9492;51.888;5.186;2023-07-31T08:54:01;3.77;;;2.53;;
18726;SDS011;9492;51.888;5.186;2023-07-31T08:56:29;2.80;;;2.43;;
18726;SDS011;9492;51.888;5.186;2023-07-31T08:58:55;2.70;;;2.40;;
18726;SDS011;9492;51.888;5.186;2023-07-31T09:01:23;4.20;;;2.30;;
18726;SDS011;9492;51.888;5.186;2023-07-31T09:03:49;6.80;;;3.17;;
18726;SDS011;9492;51.888;5.186;2023-07-31T09:06:17;3.83;;;2.80;;
18726;SDS011;9492;51.888;5.186;2023-07-31T09:08:44;7.23;;;3.20;;
18726;SDS011;9492;51.888;5.186;2023-07-31T09:11:10;3.70;;;3.10;;
18726;SDS011;9492;51.888;5.186;2023-07-31T09:16:30;4.53;;;3.20;;
18726;SDS011;9492;51.888;5.186;2023-07-31T09:18:58;4.23;;;3.53;;
18726;SDS011;9492;51.888;5.186;2023-07-31T09:21:26;4.07;;;3.30;;
18726;SDS011;9492;51.888;5.186;2023-07-31T09:23:53;3.10;;;2.73;;
18726;SDS011;9492;51.888;5.186;2023-07-31T09:26:29;4.23;;;3.20;;
18726;SDS011;9492;51.888;5.186;2023-07-31T09:28:56;4.87;;;3.30;;
18726;SDS011;9492;51.888;5.186;2023-07-31T09:31:33;4.93;;;3.37;;
18726;SDS011;9492;51.888;5.186;2023-07-31T09:34:04;4.97;;;3.37;;
18726;SDS011;9492;51.888;5.186;2023-07-31T09:36:30;4.40;;;3.63;;
18726;SDS011;9492;51.888;5.186;2023-07-31T09:38:58;5.80;;;4.27;;
18726;SDS011;9492;51.888;5.186;2023-07-31T09:41:27;4.40;;;3.77;;
18726;SDS011;9492;51.888;5.186;2023-07-31T09:43:53;4.57;;;3.40;;
18726;SDS011;9492;51.888;5.186;2023-07-31T09:46:20;8.00;;;3.90;;
18726;SDS011;9492;51.888;5.186;2023-07-31T09:48:54;6.03;;;4.17;;
18726;SDS011;9492;51.888;5.186;2023-07-31T09:51:29;4.97;;;3.80;;
18726;SDS011;9492;51.888;5.186;2023-07-31T09:53:56;5.73;;;3.20;;
18726;SDS011;9492;51.888;5.186;2023-07-31T09:56:22;3.17;;;2.93;;
18726;SDS011;9492;51.888;5.186;2023-07-31T09:58:49;4.20;;;2.83;;
18726;SDS011;9492;51.888;5.186;2023-07-31T10:01:15;4.43;;;3.03;;
18726;SDS011;9492;51.888;5.186;2023-07-31T10:03:42;4.37;;;3.27;;
18726;SDS011;9492;51.888;5.186;2023-07-31T10:06:09;3.30;;;2.80;;
18726;SDS011;9492;51.888;5.186;2023-07-31T10:08:35;4.03;;;3.00;;
18726;SDS011;9492;51.888;5.186;2023-07-31T10:11:02;3.40;;;2.77;;
18726;SDS011;9492;51.888;5.186;2023-07-31T10:13:44;3.73;;;2.80;;
18726;SDS011;9492;51.888;5.186;2023-07-31T10:21:59;3.77;;;2.83;;
18726;SDS011;9492;51.888;5.186;2023-07-31T10:24:27;3.70;;;2.60;;
18726;SDS011;9492;51.888;5.186;2023-07-31T10:26:53;4.20;;;2.63;;
18726;SDS011;9492;51.888;5.186;2023-07-31T10:29:23;3.40;;;2.33;;
18726;SDS011;9492;51.888;5.186;2023-07-31T10:31:50;3.03;;;2.73;;
18726;SDS011;9492;51.888;5.186;2023-07-31T10:34:16;3.87;;;2.80;;
18726;SDS011;9492;51.888;5.186;2023-07-31T10:36:42;4.00;;;2.57;;
18726;SDS011;9492;51.888;5.186;2023-07-31T10:41:54;3.10;;;2.27;;
18726;SDS011;9492;51.888;5.186;2023-07-31T10:44:26;2.67;;;2.20;;
18726;SDS011;9492;51.888;5.186;2023-07-31T10:46:54;5.23;;;2.70;;
18726;SDS011;9492;51.888;5.186;2023-07-31T10:49:20;2.90;;;2.20;;
18726;SDS011;9492;51.888;5.186;2023-07-31T10:51:47;4.50;;;3.07;;
18726;SDS011;9492;51.888;5.186;2023-07-31T10:54:13;2.47;;;2.27;;
18726;SDS011;9492;51.888;5.186;2023-07-31T10:56:44;3.43;;;2.40;;
18726;SDS011;9492;51.888;5.186;2023-07-31T10:59:13;4.23;;;2.70;;
18726;SDS011;9492;51.888;5.186;2023-07-31T11:01:53;2.30;;;2.10;;
18726;SDS011;9492;51.888;5.186;2023-07-31T11:04:22;2.63;;;2.27;;
18726;SDS011;9492;51.888;5.186;2023-07-31T11:07:00;2.87;;;2.50;;
18726;SDS011;9492;51.888;5.186;2023-07-31T11:09:28;3.47;;;2.60;;
18726;SDS011;9492;51.888;5.186;2023-07-31T11:11:55;4.17;;;2.40;;
18726;SDS011;9492;51.888;5.186;2023-07-31T11:14:22;2.50;;;2.30;;
18726;SDS011;9492;51.888;5.186;2023-07-31T11:16:51;2.77;;;2.37;;
18726;SDS011;9492;51.888;5.186;2023-07-31T11:19:23;2.40;;;2.20;;
18726;SDS011;9492;51.888;5.186;2023-07-31T11:22:01;3.53;;;2.70;;
18726;SDS011;9492;51.888;5.186;2023-07-31T11:24:27;3.00;;;2.40;;
18726;SDS011;9492;51.888;5.186;2023-07-31T11:26:53;2.63;;;2.37;;
18726;SDS011;9492;51.888;5.186;2023-07-31T11:29:19;2.63;;;1.87;;
18726;SDS011;9492;51.888;5.186;2023-07-31T11:31:46;1.80;;;1.63;;
18726;SDS011;9492;51.888;5.186;2023-07-31T11:34:12;2.20;;;2.00;;
18726;SDS011;9492;51.888;5.186;2023-07-31T11:36:38;2.37;;;2.17;;
18726;SDS011;9492;51.888;5.186;2023-07-31T11:39:05;4.27;;;1.97;;
18726;SDS011;9492;51.888;5.186;2023-07-31T11:41:31;3.40;;;2.00;;
18726;SDS011;9492;51.888;5.186;2023-07-31T11:44:01;4.03;;;2.10;;
18726;SDS011;9492;51.888;5.186;2023-07-31T11:46:27;3.43;;;2.37;;
18726;SDS011;9492;51.888;5.186;2023-07-31T11:48:59;1.63;;;1.53;;
18726;SDS011;9492;51.888;5.186;2023-07-31T11:51:25;2.73;;;2.30;;
18726;SDS011;9492;51.888;5.186;2023-07-31T11:53:53;2.00;;;1.90;;
18726;SDS011;9492;51.888;5.186;2023-07-31T11:56:20;2.40;;;2.20;;
18726;SDS011;9492;51.888;5.186;2023-07-31T11:58:48;4.30;;;2.63;;
18726;SDS011;9492;51.888;5.186;2023-07-31T12:01:15;2.70;;;2.50;;
18726;SDS011;9492;51.888;5.186;2023-07-31T12:03:41;2.70;;;2.50;;
18726;SDS011;9492;51.888;5.186;2023-07-31T12:06:08;3.13;;;2.50;;
18726;SDS011;9492;51.888;5.186;2023-07-31T12:11:15;3.47;;;2.47;;
18726;SDS011;9492;51.888;5.186;2023-07-31T12:13:43;4.23;;;2.40;;
18726;SDS011;9492;51.888;5.186;2023-07-31T12:16:09;2.70;;;2.47;;
18726;SDS011;9492;51.888;5.186;2023-07-31T12:18:39;3.10;;;2.90;;
18726;SDS011;9492;51.888;5.186;2023-07-31T12:21:06;3.53;;;3.10;;
18726;SDS011;9492;51.888;5.186;2023-07-31T12:23:33;3.43;;;3.10;;
18726;SDS011;9492;51.888;5.186;2023-07-31T12:26:00;5.17;;;3.23;;
18726;SDS011;9492;51.888;5.186;2023-07-31T12:28:26;3.20;;;3.00;;
18726;SDS011;9492;51.888;5.186;2023-07-31T12:30:52;3.50;;;3.20;;
18726;SDS011;9492;51.888;5.186;2023-07-31T12:33:22;4.37;;;3.23;;
18726;SDS011;9492;51.888;5.186;2023-07-31T12:35:48;3.73;;;3.10;;
18726;SDS011;9492;51.888;5.186;2023-07-31T12:38:14;3.83;;;3.40;;
18726;SDS011;9492;51.888;5.186;2023-07-31T12:40:52;4.30;;;2.93;;
18726;SDS011;9492;51.888;5.186;2023-07-31T12:43:18;3.30;;;3.00;;
18726;SDS011;9492;51.888;5.186;2023-07-31T12:45:44;3.50;;;3.20;;
18726;SDS011;9492;51.888;5.186;2023-07-31T12:48:12;5.60;;;4.00;;
18726;SDS011;9492;51.888;5.186;2023-07-31T12:50:38;3.83;;;3.43;;
18726;SDS011;9492;51.888;5.186;2023-07-31T12:53:04;3.40;;;3.10;;
18726;SDS011;9492;51.888;5.186;2023-07-31T12:55:30;5.00;;;3.23;;
18726;SDS011;9492;51.888;5.186;2023-07-31T12:57:57;4.17;;;3.77;;
18726;SDS011;9492;51.888;5.186;2023-07-31T13:00:23;4.70;;;4.00;;
18726;SDS011;9492;51.888;5.186;2023-07-31T13:02:51;4.83;;;3.93;;
18726;SDS011;9492;51.888;5.186;2023-07-31T13:05:17;4.13;;;3.70;;
18726;SDS011;9492;51.888;5.186;2023-07-31T13:07:52;4.63;;;4.23;;
18726;SDS011;9492;51.888;5.186;2023-07-31T13:10:18;4.47;;;4.07;;
18726;SDS011;9492;51.888;5.186;2023-07-31T13:12:44;6.57;;;3.93;;
18726;SDS011;9492;51.888;5.186;2023-07-31T13:15:10;5.17;;;4.43;;
18726;SDS011;9492;51.888;5.186;2023-07-31T13:17:36;4.50;;;3.93;;
18726;SDS011;9492;51.888;5.186;2023-07-31T13:20:02;5.20;;;4.77;;
18726;SDS011;9492;51.888;5.186;2023-07-31T13:22:29;9.60;;;5.27;;
18726;SDS011;9492;51.888;5.186;2023-07-31T13:24:55;5.73;;;5.20;;
18726;SDS011;9492;51.888;5.186;2023-07-31T13:27:21;10.00;;;6.13;;
18726;SDS011;9492;51.888;5.186;2023-07-31T13:29:53;6.07;;;5.20;;
18726;SDS011;9492;51.888;5.186;2023-07-31T13:32:33;6.97;;;5.30;;
18726;SDS011;9492;51.888;5.186;2023-07-31T13:35:03;5.00;;;4.53;;
18726;SDS011;9492;51.888;5.186;2023-07-31T13:37:29;8.13;;;5.57;;
18726;SDS011;9492;51.888;5.186;2023-07-31T13:39:55;6.77;;;5.63;;
18726;SDS011;9492;51.888;5.186;2023-07-31T13:42:21;8.43;;;6.00;;
18726;SDS011;9492;51.888;5.186;2023-07-31T13:44:47;8.67;;;6.20;;
18726;SDS011;9492;51.888;5.186;2023-07-31T13:47:13;6.73;;;5.30;;
18726;SDS011;9492;51.888;5.186;2023-07-31T13:49:40;6.80;;;6.10;;
18726;SDS011;9492;51.888;5.186;2023-07-31T13:52:08;8.23;;;6.37;;
18726;SDS011;9492;51.888;5.186;2023-07-31T13:54:34;7.70;;;5.93;;
18726;SDS011;9492;51.888;5.186;2023-07-31T13:57:00;6.97;;;6.00;;
18726;SDS011;9492;51.888;5.186;2023-07-31T14:02:17;6.07;;;4.73;;
18726;SDS011;9492;51.888;5.186;2023-07-31T14:04:43;6.27;;;5.63;;
18726;SDS011;9492;51.888;5.186;2023-07-31T14:07:09;7.27;;;4.97;;
18726;SDS011;9492;51.888;5.186;2023-07-31T14:09:36;4.77;;;4.17;;
18726;SDS011;9492;51.888;5.186;2023-07-31T14:12:02;5.07;;;4.27;;
18726;SDS011;9492;51.888;5.186;2023-07-31T14:14:28;5.60;;;4.47;;
18726;SDS011;9492;51.888;5.186;2023-07-31T14:16:54;6.23;;;3.87;;
18726;SDS011;9492;51.888;5.186;2023-07-31T14:19:19;7.53;;;4.00;;
18726;SDS011;9492;51.888;5.186;2023-07-31T14:21:45;6.83;;;4.77;;
18726;SDS011;9492;51.888;5.186;2023-07-31T14:24:11;4.93;;;4.43;;
18726;SDS011;9492;51.888;5.186;2023-07-31T14:26:37;4.67;;;4.17;;
18726;SDS011;9492;51.888;5.186;2023-07-31T14:29:03;4.60;;;3.87;;
18726;SDS011;9492;51.888;5.186;2023-07-31T14:31:29;4.80;;;4.00;;
18726;SDS011;9492;51.888;5.186;2023-07-31T14:33:55;5.43;;;4.53;;
18726;SDS011;9492;51.888;5.186;2023-07-31T14:36:22;5.03;;;4.03;;
18726;SDS011;9492;51.888;5.186;2023-07-31T14:38:48;5.40;;;4.37;;
18726;SDS011;9492;51.888;5.186;2023-07-31T14:41:14;5.17;;;4.27;;
18726;SDS011;9492;51.888;5.186;2023-07-31T14:43:40;5.70;;;3.77;;
18726;SDS011;9492;51.888;5.186;2023-07-31T14:46:06;9.40;;;4.20;;
18726;SDS011;9492;51.888;5.186;2023-07-31T14:48:32;4.70;;;4.10;;
18726;SDS011;9492;51.888;5.186;2023-07-31T14:50:58;4.80;;;4.00;;
18726;SDS011;9492;51.888;5.186;2023-07-31T14:53:24;4.27;;;3.70;;
18726;SDS011;9492;51.888;5.186;2023-07-31T14:55:50;5.80;;;3.63;;
18726;SDS011;9492;51.888;5.186;2023-07-31T14:58:16;5.07;;;3.80;;
18726;SDS011;9492;51.888;5.186;2023-07-31T15:00:43;5.77;;;3.57;;
18726;SDS011;9492;51.888;5.186;2023-07-31T15:03:09;3.90;;;3.50;;
18726;SDS011;9492;51.888;5.186;2023-07-31T15:05:35;5.27;;;3.20;;
18726;SDS011;9492;51.888;5.186;2023-07-31T15:08:01;5.40;;;3.57;;
18726;SDS011;9492;51.888;5.186;2023-07-31T15:10:27;4.70;;;3.67;;
18726;SDS011;9492;51.888;5.186;2023-07-31T15:12:53;4.83;;;2.80;;
18726;SDS011;9492;51.888;5.186;2023-07-31T15:15:19;3.07;;;2.77;;
18726;SDS011;9492;51.888;5.186;2023-07-31T15:17:45;6.33;;;2.63;;
18726;SDS011;9492;51.888;5.186;2023-07-31T15:20:11;3.13;;;2.27;;
18726;SDS011;9492;51.888;5.186;2023-07-31T15:22:37;2.77;;;2.43;;
18726;SDS011;9492;51.888;5.186;2023-07-31T15:25:03;2.23;;;2.00;;
18726;SDS011;9492;51.888;5.186;2023-07-31T15:27:29;3.43;;;2.20;;
18726;SDS011;9492;51.888;5.186;2023-07-31T15:29:59;3.37;;;2.30;;
18726;SDS011;9492;51.888;5.186;2023-07-31T15:32:24;1.70;;;1.60;;
18726;SDS011;9492;51.888;5.186;2023-07-31T15:34:50;1.93;;;1.77;;
18726;SDS011;9492;51.888;5.186;2023-07-31T15:37:17;1.70;;;1.33;;